sensor_id;sensor_type;location;lat;lon;timestamp;P1;durP1;ratioP1;P2;durP2;ratioP2
19575;SDS011;41589;51.196;7.074;2022-11-28T00:02:24;1.33;;;1.30;;
19575;SDS011;41589;51.196;7.074;2022-11-28T00:07:25;1.27;;;1.27;;
19575;SDS011;41589;51.196;7.074;2022-11-28T00:12:25;1.47;;;1.37;;
19575;SDS011;41589;51.196;7.074;2022-11-28T00:17:26;1.50;;;1.40;;
19575;SDS011;41589;51.196;7.074;2022-11-28T00:22:26;1.40;;;1.40;;
19575;SDS011;41589;51.196;7.074;2022-11-28T00:27:28;1.60;;;1.50;;
19575;SDS011;41589;51.196;7.074;2022-11-28T00:32:29;1.20;;;1.20;;
19575;SDS011;41589;51.196;7.074;2022-11-28T00:37:30;1.20;;;1.20;;
19575;SDS011;41589;51.196;7.074;2022-11-28T00:42:30;1.20;;;1.20;;
19575;SDS011;41589;51.196;7.074;2022-11-28T00:47:30;1.20;;;1.20;;
19575;SDS011;41589;51.196;7.074;2022-11-28T00:52:31;1.30;;;1.30;;
19575;SDS011;41589;51.196;7.074;2022-11-28T00:57:32;1.77;;;1.67;;
19575;SDS011;41589;51.196;7.074;2022-11-28T01:02:32;1.30;;;1.30;;
19575;SDS011;41589;51.196;7.074;2022-11-28T01:07:32;1.53;;;1.50;;
19575;SDS011;41589;51.196;7.074;2022-11-28T01:12:33;1.60;;;1.50;;
19575;SDS011;41589;51.196;7.074;2022-11-28T01:17:33;1.50;;;1.40;;
19575;SDS011;41589;51.196;7.074;2022-11-28T01:22:34;1.40;;;1.40;;
19575;SDS011;41589;51.196;7.074;2022-11-28T01:27:34;1.13;;;1.13;;
19575;SDS011;41589;51.196;7.074;2022-11-28T01:32:35;1.30;;;1.30;;
19575;SDS011;41589;51.196;7.074;2022-11-28T01:37:35;1.40;;;1.40;;
19575;SDS011;41589;51.196;7.074;2022-11-28T01:42:35;1.37;;;1.33;;
19575;SDS011;41589;51.196;7.074;2022-11-28T01:47:36;1.37;;;1.37;;
19575;SDS011;41589;51.196;7.074;2022-11-28T01:52:37;1.40;;;1.40;;
19575;SDS011;41589;51.196;7.074;2022-11-28T01:57:42;1.47;;;1.47;;
19575;SDS011;41589;51.196;7.074;2022-11-28T02:02:57;1.57;;;1.57;;
19575;SDS011;41589;51.196;7.074;2022-11-28T02:08:02;1.30;;;1.30;;
19575;SDS011;41589;51.196;7.074;2022-11-28T02:18:22;1.40;;;1.30;;
19575;SDS011;41589;51.196;7.074;2022-11-28T02:23:53;1.40;;;1.40;;
19575;SDS011;41589;51.196;7.074;2022-11-28T02:34:36;1.40;;;1.40;;
19575;SDS011;41589;51.196;7.074;2022-11-28T02:39:49;2.20;;;1.87;;
19575;SDS011;41589;51.196;7.074;2022-11-28T02:45:13;1.40;;;1.33;;
19575;SDS011;41589;51.196;7.074;2022-11-28T02:50:32;1.50;;;1.40;;
19575;SDS011;41589;51.196;7.074;2022-11-28T02:55:41;1.30;;;1.30;;
19575;SDS011;41589;51.196;7.074;2022-11-28T03:00:43;1.40;;;1.37;;
19575;SDS011;41589;51.196;7.074;2022-11-28T03:05:57;1.23;;;1.23;;
19575;SDS011;41589;51.196;7.074;2022-11-28T03:11:01;1.57;;;1.47;;
19575;SDS011;41589;51.196;7.074;2022-11-28T03:21:32;1.27;;;1.27;;
19575;SDS011;41589;51.196;7.074;2022-11-28T03:31:57;1.40;;;1.40;;
19575;SDS011;41589;51.196;7.074;2022-11-28T03:37:03;1.47;;;1.47;;
19575;SDS011;41589;51.196;7.074;2022-11-28T03:42:15;1.30;;;1.30;;
19575;SDS011;41589;51.196;7.074;2022-11-28T03:47:22;1.50;;;1.40;;
19575;SDS011;41589;51.196;7.074;2022-11-28T03:52:27;1.50;;;1.40;;
19575;SDS011;41589;51.196;7.074;2022-11-28T03:57:34;1.40;;;1.40;;
19575;SDS011;41589;51.196;7.074;2022-11-28T04:02:51;1.30;;;1.30;;
19575;SDS011;41589;51.196;7.074;2022-11-28T04:13:23;1.40;;;1.40;;
19575;SDS011;41589;51.196;7.074;2022-11-28T04:18:37;1.53;;;1.43;;
19575;SDS011;41589;51.196;7.074;2022-11-28T04:23:49;1.50;;;1.40;;
19575;SDS011;41589;51.196;7.074;2022-11-28T04:28:54;1.50;;;1.50;;
19575;SDS011;41589;51.196;7.074;2022-11-28T04:33:59;1.30;;;1.30;;
19575;SDS011;41589;51.196;7.074;2022-11-28T04:39:07;1.40;;;1.40;;
19575;SDS011;41589;51.196;7.074;2022-11-28T04:44:12;1.50;;;1.40;;
19575;SDS011;41589;51.196;7.074;2022-11-28T04:49:18;1.50;;;1.50;;
19575;SDS011;41589;51.196;7.074;2022-11-28T04:54:30;1.40;;;1.40;;
19575;SDS011;41589;51.196;7.074;2022-11-28T04:59:40;1.20;;;1.20;;
19575;SDS011;41589;51.196;7.074;2022-11-28T05:04:42;1.40;;;1.40;;
19575;SDS011;41589;51.196;7.074;2022-11-28T05:09:43;1.37;;;1.37;;
19575;SDS011;41589;51.196;7.074;2022-11-28T05:14:44;1.33;;;1.33;;
19575;SDS011;41589;51.196;7.074;2022-11-28T05:19:44;1.50;;;1.40;;
19575;SDS011;41589;51.196;7.074;2022-11-28T05:24:44;1.53;;;1.43;;
19575;SDS011;41589;51.196;7.074;2022-11-28T05:29:45;1.37;;;1.37;;
19575;SDS011;41589;51.196;7.074;2022-11-28T05:34:45;1.50;;;1.50;;
19575;SDS011;41589;51.196;7.074;2022-11-28T05:39:46;1.37;;;1.37;;
19575;SDS011;41589;51.196;7.074;2022-11-28T05:44:46;1.47;;;1.47;;
19575;SDS011;41589;51.196;7.074;2022-11-28T05:49:47;1.60;;;1.50;;
19575;SDS011;41589;51.196;7.074;2022-11-28T05:54:47;1.50;;;1.50;;
19575;SDS011;41589;51.196;7.074;2022-11-28T05:59:47;1.70;;;1.60;;
19575;SDS011;41589;51.196;7.074;2022-11-28T06:04:48;1.50;;;1.50;;
19575;SDS011;41589;51.196;7.074;2022-11-28T06:09:48;1.50;;;1.50;;
19575;SDS011;41589;51.196;7.074;2022-11-28T06:14:48;1.63;;;1.53;;
19575;SDS011;41589;51.196;7.074;2022-11-28T06:19:49;1.50;;;1.50;;
19575;SDS011;41589;51.196;7.074;2022-11-28T06:24:49;1.53;;;1.50;;
19575;SDS011;41589;51.196;7.074;2022-11-28T06:29:50;1.60;;;1.50;;
19575;SDS011;41589;51.196;7.074;2022-11-28T06:34:50;1.47;;;1.47;;
19575;SDS011;41589;51.196;7.074;2022-11-28T06:39:53;1.70;;;1.60;;
19575;SDS011;41589;51.196;7.074;2022-11-28T06:44:53;1.37;;;1.37;;
19575;SDS011;41589;51.196;7.074;2022-11-28T06:49:54;1.50;;;1.50;;
19575;SDS011;41589;51.196;7.074;2022-11-28T06:54:54;1.50;;;1.50;;
19575;SDS011;41589;51.196;7.074;2022-11-28T06:59:55;1.47;;;1.47;;
19575;SDS011;41589;51.196;7.074;2022-11-28T07:04:55;1.47;;;1.47;;
19575;SDS011;41589;51.196;7.074;2022-11-28T07:09:56;1.87;;;1.77;;
19575;SDS011;41589;51.196;7.074;2022-11-28T07:14:59;1.40;;;1.40;;
19575;SDS011;41589;51.196;7.074;2022-11-28T07:20:00;1.50;;;1.50;;
19575;SDS011;41589;51.196;7.074;2022-11-28T07:25:00;1.60;;;1.60;;
19575;SDS011;41589;51.196;7.074;2022-11-28T07:30:00;1.73;;;1.73;;
19575;SDS011;41589;51.196;7.074;2022-11-28T07:35:01;1.80;;;1.70;;
19575;SDS011;41589;51.196;7.074;2022-11-28T07:40:04;1.50;;;1.50;;
19575;SDS011;41589;51.196;7.074;2022-11-28T07:45:05;1.67;;;1.60;;
19575;SDS011;41589;51.196;7.074;2022-11-28T07:50:06;1.50;;;1.50;;
19575;SDS011;41589;51.196;7.074;2022-11-28T07:55:07;1.73;;;1.40;;
19575;SDS011;41589;51.196;7.074;2022-11-28T08:00:07;1.70;;;1.60;;
19575;SDS011;41589;51.196;7.074;2022-11-28T08:05:12;1.30;;;1.30;;
19575;SDS011;41589;51.196;7.074;2022-11-28T08:10:12;1.50;;;1.50;;
19575;SDS011;41589;51.196;7.074;2022-11-28T08:15:13;1.70;;;1.60;;
19575;SDS011;41589;51.196;7.074;2022-11-28T08:20:16;1.53;;;1.53;;
19575;SDS011;41589;51.196;7.074;2022-11-28T08:25:17;1.30;;;1.30;;
19575;SDS011;41589;51.196;7.074;2022-11-28T08:30:17;1.70;;;1.60;;
19575;SDS011;41589;51.196;7.074;2022-11-28T08:35:17;1.40;;;1.40;;
19575;SDS011;41589;51.196;7.074;2022-11-28T08:40:18;1.40;;;1.40;;
19575;SDS011;41589;51.196;7.074;2022-11-28T08:45:19;3.33;;;3.23;;
19575;SDS011;41589;51.196;7.074;2022-11-28T08:50:19;2.50;;;2.40;;
19575;SDS011;41589;51.196;7.074;2022-11-28T08:55:19;1.90;;;1.80;;
19575;SDS011;41589;51.196;7.074;2022-11-28T09:00:20;1.57;;;1.40;;
19575;SDS011;41589;51.196;7.074;2022-11-28T09:05:20;1.90;;;1.80;;
19575;SDS011;41589;51.196;7.074;2022-11-28T09:10:21;2.00;;;1.90;;
19575;SDS011;41589;51.196;7.074;2022-11-28T09:15:22;1.40;;;1.40;;
19575;SDS011;41589;51.196;7.074;2022-11-28T09:20:25;1.63;;;1.60;;
19575;SDS011;41589;51.196;7.074;2022-11-28T09:25:25;1.47;;;1.47;;
19575;SDS011;41589;51.196;7.074;2022-11-28T09:30:26;1.90;;;1.70;;
19575;SDS011;41589;51.196;7.074;2022-11-28T09:35:29;1.50;;;1.50;;
19575;SDS011;41589;51.196;7.074;2022-11-28T09:40:37;1.40;;;1.40;;
19575;SDS011;41589;51.196;7.074;2022-11-28T09:45:48;1.40;;;1.40;;
19575;SDS011;41589;51.196;7.074;2022-11-28T09:50:53;1.40;;;1.40;;
19575;SDS011;41589;51.196;7.074;2022-11-28T09:56:17;1.60;;;1.50;;
19575;SDS011;41589;51.196;7.074;2022-11-28T10:06:39;1.30;;;1.30;;
19575;SDS011;41589;51.196;7.074;2022-11-28T10:22:39;1.27;;;1.27;;
19575;SDS011;41589;51.196;7.074;2022-11-28T10:27:45;1.77;;;1.67;;
19575;SDS011;41589;51.196;7.074;2022-11-28T10:32:58;1.50;;;1.50;;
19575;SDS011;41589;51.196;7.074;2022-11-28T10:38:13;1.43;;;1.43;;
19575;SDS011;41589;51.196;7.074;2022-11-28T10:48:29;1.50;;;1.50;;
19575;SDS011;41589;51.196;7.074;2022-11-28T10:53:43;1.30;;;1.30;;
19575;SDS011;41589;51.196;7.074;2022-11-28T11:03:50;1.40;;;1.40;;
19575;SDS011;41589;51.196;7.074;2022-11-28T11:08:54;1.97;;;1.87;;
19575;SDS011;41589;51.196;7.074;2022-11-28T11:19:08;1.53;;;1.43;;
19575;SDS011;41589;51.196;7.074;2022-11-28T11:24:38;1.40;;;1.40;;
19575;SDS011;41589;51.196;7.074;2022-11-28T11:29:42;1.50;;;1.40;;
19575;SDS011;41589;51.196;7.074;2022-11-28T11:34:47;1.40;;;1.40;;
19575;SDS011;41589;51.196;7.074;2022-11-28T11:39:51;1.67;;;1.57;;
19575;SDS011;41589;51.196;7.074;2022-11-28T11:44:52;1.40;;;1.40;;
19575;SDS011;41589;51.196;7.074;2022-11-28T11:50:02;1.53;;;1.53;;
19575;SDS011;41589;51.196;7.074;2022-11-28T11:55:14;1.40;;;1.40;;
19575;SDS011;41589;51.196;7.074;2022-11-28T12:05:29;1.83;;;1.73;;
19575;SDS011;41589;51.196;7.074;2022-11-28T12:10:47;1.73;;;1.67;;
19575;SDS011;41589;51.196;7.074;2022-11-28T12:16:00;1.70;;;1.60;;
19575;SDS011;41589;51.196;7.074;2022-11-28T12:26:35;1.50;;;1.40;;
19575;SDS011;41589;51.196;7.074;2022-11-28T12:42:28;1.40;;;1.40;;
19575;SDS011;41589;51.196;7.074;2022-11-28T12:47:45;1.57;;;1.57;;
19575;SDS011;41589;51.196;7.074;2022-11-28T12:58:29;2.20;;;2.10;;
19575;SDS011;41589;51.196;7.074;2022-11-28T13:03:38;3.27;;;3.17;;
19575;SDS011;41589;51.196;7.074;2022-11-28T13:09:01;1.57;;;1.57;;
19575;SDS011;41589;51.196;7.074;2022-11-28T13:19:44;1.40;;;1.40;;
19575;SDS011;41589;51.196;7.074;2022-11-28T13:30:22;1.30;;;1.30;;
19575;SDS011;41589;51.196;7.074;2022-11-28T13:35:30;1.30;;;1.30;;
19575;SDS011;41589;51.196;7.074;2022-11-28T13:40:46;1.30;;;1.30;;
19575;SDS011;41589;51.196;7.074;2022-11-28T13:45:57;1.20;;;1.20;;
19575;SDS011;41589;51.196;7.074;2022-11-28T13:56:21;1.17;;;1.17;;
19575;SDS011;41589;51.196;7.074;2022-11-28T14:01:52;1.33;;;1.33;;
19575;SDS011;41589;51.196;7.074;2022-11-28T14:07:06;1.10;;;1.10;;
19575;SDS011;41589;51.196;7.074;2022-11-28T14:23:14;1.20;;;1.20;;
19575;SDS011;41589;51.196;7.074;2022-11-28T14:28:35;1.40;;;1.40;;
19575;SDS011;41589;51.196;7.074;2022-11-28T14:33:45;1.17;;;1.17;;
19575;SDS011;41589;51.196;7.074;2022-11-28T14:50:44;1.10;;;1.10;;
19575;SDS011;41589;51.196;7.074;2022-11-28T14:55:28;1.30;;;1.30;;
19575;SDS011;41589;51.196;7.074;2022-11-28T15:06:02;1.30;;;1.30;;
19575;SDS011;41589;51.196;7.074;2022-11-28T15:16:40;1.80;;;1.70;;
19575;SDS011;41589;51.196;7.074;2022-11-28T15:21:47;1.50;;;1.50;;
19575;SDS011;41589;51.196;7.074;2022-11-28T15:26:51;1.50;;;1.50;;
19575;SDS011;41589;51.196;7.074;2022-11-28T15:31:56;1.57;;;1.57;;
19575;SDS011;41589;51.196;7.074;2022-11-28T15:36:58;1.63;;;1.57;;
19575;SDS011;41589;51.196;7.074;2022-11-28T15:42:04;1.90;;;1.80;;
19575;SDS011;41589;51.196;7.074;2022-11-28T15:47:14;2.93;;;2.83;;
19575;SDS011;41589;51.196;7.074;2022-11-28T15:52:17;2.90;;;2.80;;
19575;SDS011;41589;51.196;7.074;2022-11-28T15:57:25;2.87;;;2.77;;
19575;SDS011;41589;51.196;7.074;2022-11-28T16:02:28;2.70;;;2.60;;
19575;SDS011;41589;51.196;7.074;2022-11-28T16:07:33;2.53;;;2.43;;
19575;SDS011;41589;51.196;7.074;2022-11-28T16:12:34;2.47;;;2.37;;
19575;SDS011;41589;51.196;7.074;2022-11-28T16:17:35;3.60;;;3.40;;
19575;SDS011;41589;51.196;7.074;2022-11-28T16:22:38;2.83;;;2.73;;
19575;SDS011;41589;51.196;7.074;2022-11-28T16:27:40;3.70;;;3.50;;
19575;SDS011;41589;51.196;7.074;2022-11-28T16:32:41;2.53;;;2.43;;
19575;SDS011;41589;51.196;7.074;2022-11-28T16:37:42;2.20;;;2.10;;
19575;SDS011;41589;51.196;7.074;2022-11-28T16:42:50;2.90;;;2.30;;
19575;SDS011;41589;51.196;7.074;2022-11-28T16:48:05;2.70;;;2.60;;
19575;SDS011;41589;51.196;7.074;2022-11-28T16:53:08;3.10;;;2.90;;
19575;SDS011;41589;51.196;7.074;2022-11-28T16:58:40;2.93;;;2.73;;
19575;SDS011;41589;51.196;7.074;2022-11-28T17:03:45;3.27;;;3.03;;
19575;SDS011;41589;51.196;7.074;2022-11-28T17:08:49;2.80;;;2.60;;
19575;SDS011;41589;51.196;7.074;2022-11-28T17:13:50;3.07;;;2.87;;
19575;SDS011;41589;51.196;7.074;2022-11-28T17:18:50;2.77;;;2.57;;
19575;SDS011;41589;51.196;7.074;2022-11-28T17:23:51;3.10;;;2.90;;
19575;SDS011;41589;51.196;7.074;2022-11-28T17:28:51;3.40;;;3.10;;
19575;SDS011;41589;51.196;7.074;2022-11-28T17:33:52;3.40;;;3.20;;
19575;SDS011;41589;51.196;7.074;2022-11-28T17:38:53;3.50;;;3.30;;
19575;SDS011;41589;51.196;7.074;2022-11-28T17:43:53;3.77;;;3.47;;
19575;SDS011;41589;51.196;7.074;2022-11-28T17:48:53;3.57;;;3.33;;
19575;SDS011;41589;51.196;7.074;2022-11-28T17:53:54;3.40;;;3.20;;
19575;SDS011;41589;51.196;7.074;2022-11-28T17:58:55;3.40;;;3.20;;
19575;SDS011;41589;51.196;7.074;2022-11-28T18:03:56;3.63;;;3.33;;
19575;SDS011;41589;51.196;7.074;2022-11-28T18:08:58;3.20;;;3.00;;
19575;SDS011;41589;51.196;7.074;2022-11-28T18:14:00;3.23;;;2.93;;
19575;SDS011;41589;51.196;7.074;2022-11-28T18:19:02;3.83;;;3.53;;
19575;SDS011;41589;51.196;7.074;2022-11-28T18:24:03;3.47;;;3.27;;
19575;SDS011;41589;51.196;7.074;2022-11-28T18:29:03;3.57;;;3.37;;
19575;SDS011;41589;51.196;7.074;2022-11-28T18:34:06;3.53;;;3.33;;
19575;SDS011;41589;51.196;7.074;2022-11-28T18:39:08;3.87;;;3.67;;
19575;SDS011;41589;51.196;7.074;2022-11-28T18:44:11;2.90;;;2.73;;
19575;SDS011;41589;51.196;7.074;2022-11-28T18:49:12;3.50;;;3.30;;
19575;SDS011;41589;51.196;7.074;2022-11-28T18:54:14;3.30;;;3.10;;
19575;SDS011;41589;51.196;7.074;2022-11-28T18:59:14;3.10;;;2.90;;
19575;SDS011;41589;51.196;7.074;2022-11-28T19:04:15;2.90;;;2.80;;
19575;SDS011;41589;51.196;7.074;2022-11-28T19:09:17;3.13;;;2.93;;
19575;SDS011;41589;51.196;7.074;2022-11-28T19:14:18;3.50;;;3.30;;
19575;SDS011;41589;51.196;7.074;2022-11-28T19:19:20;3.30;;;3.00;;
19575;SDS011;41589;51.196;7.074;2022-11-28T19:24:22;3.30;;;2.93;;
19575;SDS011;41589;51.196;7.074;2022-11-28T19:29:23;2.83;;;2.70;;
19575;SDS011;41589;51.196;7.074;2022-11-28T19:34:23;3.10;;;2.90;;
19575;SDS011;41589;51.196;7.074;2022-11-28T19:39:24;3.20;;;3.00;;
19575;SDS011;41589;51.196;7.074;2022-11-28T19:44:25;3.00;;;2.80;;
19575;SDS011;41589;51.196;7.074;2022-11-28T19:49:28;3.00;;;2.80;;
19575;SDS011;41589;51.196;7.074;2022-11-28T19:54:28;2.67;;;2.50;;
19575;SDS011;41589;51.196;7.074;2022-11-28T19:59:29;2.70;;;2.50;;
19575;SDS011;41589;51.196;7.074;2022-11-28T20:04:31;3.30;;;3.10;;
19575;SDS011;41589;51.196;7.074;2022-11-28T20:09:32;2.77;;;2.67;;
19575;SDS011;41589;51.196;7.074;2022-11-28T20:14:32;2.73;;;2.63;;
19575;SDS011;41589;51.196;7.074;2022-11-28T20:19:32;3.20;;;3.00;;
19575;SDS011;41589;51.196;7.074;2022-11-28T20:24:33;3.03;;;2.83;;
19575;SDS011;41589;51.196;7.074;2022-11-28T20:29:34;3.10;;;2.90;;
19575;SDS011;41589;51.196;7.074;2022-11-28T20:34:34;3.10;;;2.90;;
19575;SDS011;41589;51.196;7.074;2022-11-28T20:39:35;3.53;;;3.23;;
19575;SDS011;41589;51.196;7.074;2022-11-28T20:44:35;2.67;;;2.57;;
19575;SDS011;41589;51.196;7.074;2022-11-28T20:49:36;2.83;;;2.67;;
19575;SDS011;41589;51.196;7.074;2022-11-28T20:54:37;2.93;;;2.73;;
19575;SDS011;41589;51.196;7.074;2022-11-28T20:59:37;3.03;;;2.83;;
19575;SDS011;41589;51.196;7.074;2022-11-28T21:04:38;3.10;;;2.90;;
19575;SDS011;41589;51.196;7.074;2022-11-28T21:09:38;3.70;;;3.40;;
19575;SDS011;41589;51.196;7.074;2022-11-28T21:14:39;3.27;;;3.07;;
19575;SDS011;41589;51.196;7.074;2022-11-28T21:19:39;3.73;;;3.50;;
19575;SDS011;41589;51.196;7.074;2022-11-28T21:24:39;3.70;;;3.40;;
19575;SDS011;41589;51.196;7.074;2022-11-28T21:29:45;4.53;;;4.13;;
19575;SDS011;41589;51.196;7.074;2022-11-28T21:34:51;4.33;;;3.93;;
19575;SDS011;41589;51.196;7.074;2022-11-28T21:39:52;3.83;;;3.53;;
19575;SDS011;41589;51.196;7.074;2022-11-28T21:44:53;4.20;;;3.80;;
19575;SDS011;41589;51.196;7.074;2022-11-28T21:49:54;4.10;;;3.80;;
19575;SDS011;41589;51.196;7.074;2022-11-28T21:54:54;4.33;;;4.03;;
19575;SDS011;41589;51.196;7.074;2022-11-28T21:59:58;4.00;;;3.70;;
19575;SDS011;41589;51.196;7.074;2022-11-28T22:05:01;5.00;;;4.40;;
19575;SDS011;41589;51.196;7.074;2022-11-28T22:10:02;4.87;;;4.40;;
19575;SDS011;41589;51.196;7.074;2022-11-28T22:15:05;6.90;;;4.47;;
19575;SDS011;41589;51.196;7.074;2022-11-28T22:20:06;5.77;;;4.10;;
19575;SDS011;41589;51.196;7.074;2022-11-28T22:25:11;4.00;;;3.73;;
19575;SDS011;41589;51.196;7.074;2022-11-28T22:30:14;4.17;;;3.87;;
19575;SDS011;41589;51.196;7.074;2022-11-28T22:35:15;4.13;;;3.83;;
19575;SDS011;41589;51.196;7.074;2022-11-28T22:40:16;4.67;;;4.37;;
19575;SDS011;41589;51.196;7.074;2022-11-28T22:45:16;5.50;;;4.60;;
19575;SDS011;41589;51.196;7.074;2022-11-28T22:50:17;4.73;;;4.17;;
19575;SDS011;41589;51.196;7.074;2022-11-28T22:55:21;4.43;;;4.13;;
19575;SDS011;41589;51.196;7.074;2022-11-28T23:00:22;4.40;;;4.00;;
19575;SDS011;41589;51.196;7.074;2022-11-28T23:05:22;4.67;;;4.27;;
19575;SDS011;41589;51.196;7.074;2022-11-28T23:10:26;4.10;;;3.80;;
19575;SDS011;41589;51.196;7.074;2022-11-28T23:15:35;5.20;;;4.70;;
19575;SDS011;41589;51.196;7.074;2022-11-28T23:20:36;4.50;;;4.20;;
19575;SDS011;41589;51.196;7.074;2022-11-28T23:25:45;4.90;;;4.47;;
19575;SDS011;41589;51.196;7.074;2022-11-28T23:30:51;4.60;;;4.20;;
19575;SDS011;41589;51.196;7.074;2022-11-28T23:35:56;4.30;;;4.00;;
19575;SDS011;41589;51.196;7.074;2022-11-28T23:41:00;4.47;;;4.07;;
19575;SDS011;41589;51.196;7.074;2022-11-28T23:46:03;5.27;;;4.77;;
19575;SDS011;41589;51.196;7.074;2022-11-28T23:51:08;6.03;;;4.77;;
19575;SDS011;41589;51.196;7.074;2022-11-28T23:56:12;5.83;;;5.37;;
